sensor_id;sensor_type;location;lat;lon;timestamp;temperature;humidity
79467;SHT30;68933;49.726;9.226;2023-05-10T00:01:12;16.5;78
79467;SHT30;68933;49.726;9.226;2023-05-10T00:03:25;16.5;78
79467;SHT30;68933;49.726;9.226;2023-05-10T00:05:38;16.4;78
79467;SHT30;68933;49.726;9.226;2023-05-10T00:07:51;16.4;78
79467;SHT30;68933;49.726;9.226;2023-05-10T00:10:04;16.4;79
79467;SHT30;68933;49.726;9.226;2023-05-10T00:12:17;16.4;79
79467;SHT30;68933;49.726;9.226;2023-05-10T00:14:30;16.4;79
79467;SHT30;68933;49.726;9.226;2023-05-10T00:16:43;16.4;79
79467;SHT30;68933;49.726;9.226;2023-05-10T00:18:56;16.4;79
79467;SHT30;68933;49.726;9.226;2023-05-10T00:21:09;16.4;78
79467;SHT30;68933;49.726;9.226;2023-05-10T00:23:22;16.4;78
79467;SHT30;68933;49.726;9.226;2023-05-10T00:25:35;16.4;77
79467;SHT30;68933;49.726;9.226;2023-05-10T00:27:48;16.4;77
79467;SHT30;68933;49.726;9.226;2023-05-10T00:30:01;16.4;77
79467;SHT30;68933;49.726;9.226;2023-05-10T00:32:14;16.4;75
79467;SHT30;68933;49.726;9.226;2023-05-10T00:34:27;16.4;75
79467;SHT30;68933;49.726;9.226;2023-05-10T00:36:40;16.4;75
79467;SHT30;68933;49.726;9.226;2023-05-10T00:38:53;16.4;75
79467;SHT30;68933;49.726;9.226;2023-05-10T00:41:06;16.3;75
79467;SHT30;68933;49.726;9.226;2023-05-10T00:43:19;16.3;75
79467;SHT30;68933;49.726;9.226;2023-05-10T00:45:32;16.3;75
79467;SHT30;68933;49.726;9.226;2023-05-10T00:47:45;16.3;75
79467;SHT30;68933;49.726;9.226;2023-05-10T00:49:58;16.3;75
79467;SHT30;68933;49.726;9.226;2023-05-10T00:52:11;16.2;74
79467;SHT30;68933;49.726;9.226;2023-05-10T00:54:24;16.2;74
79467;SHT30;68933;49.726;9.226;2023-05-10T00:56:37;16.1;74
79467;SHT30;68933;49.726;9.226;2023-05-10T00:58:50;16.1;74
79467;SHT30;68933;49.726;9.226;2023-05-10T01:01:04;16.1;74
79467;SHT30;68933;49.726;9.226;2023-05-10T01:03:16;16;74
79467;SHT30;68933;49.726;9.226;2023-05-10T01:05:29;16;74
79467;SHT30;68933;49.726;9.226;2023-05-10T01:07:42;16;74
79467;SHT30;68933;49.726;9.226;2023-05-10T01:09:55;16;74
79467;SHT30;68933;49.726;9.226;2023-05-10T01:12:08;15.9;74
79467;SHT30;68933;49.726;9.226;2023-05-10T01:14:21;15.9;74
79467;SHT30;68933;49.726;9.226;2023-05-10T01:16:35;15.9;74
79467;SHT30;68933;49.726;9.226;2023-05-10T01:18:47;15.8;74
79467;SHT30;68933;49.726;9.226;2023-05-10T01:21:04;15.8;74
79467;SHT30;68933;49.726;9.226;2023-05-10T01:23:22;15.7;74
79467;SHT30;68933;49.726;9.226;2023-05-10T01:25:31;15.7;74
79467;SHT30;68933;49.726;9.226;2023-05-10T01:27:45;15.7;74
79467;SHT30;68933;49.726;9.226;2023-05-10T01:29:59;15.7;74
79467;SHT30;68933;49.726;9.226;2023-05-10T01:32:08;15.7;74
79467;SHT30;68933;49.726;9.226;2023-05-10T01:34:19;15.7;74
79467;SHT30;68933;49.726;9.226;2023-05-10T01:36:32;15.6;74
79467;SHT30;68933;49.726;9.226;2023-05-10T01:38:46;15.6;74
79467;SHT30;68933;49.726;9.226;2023-05-10T01:41:00;15.6;74
79467;SHT30;68933;49.726;9.226;2023-05-10T01:43:11;15.6;75
79467;SHT30;68933;49.726;9.226;2023-05-10T01:45:24;15.6;75
79467;SHT30;68933;49.726;9.226;2023-05-10T01:47:37;15.6;74
79467;SHT30;68933;49.726;9.226;2023-05-10T01:49:50;15.6;74
79467;SHT30;68933;49.726;9.226;2023-05-10T01:52:04;15.6;74
79467;SHT30;68933;49.726;9.226;2023-05-10T01:54:15;15.6;74
79467;SHT30;68933;49.726;9.226;2023-05-10T01:56:29;15.6;74
79467;SHT30;68933;49.726;9.226;2023-05-10T01:58:42;15.6;74
79467;SHT30;68933;49.726;9.226;2023-05-10T02:00:54;15.6;74
79467;SHT30;68933;49.726;9.226;2023-05-10T02:03:07;15.5;74
79467;SHT30;68933;49.726;9.226;2023-05-10T02:05:20;15.5;74
79467;SHT30;68933;49.726;9.226;2023-05-10T02:07:34;15.5;74
79467;SHT30;68933;49.726;9.226;2023-05-10T02:09:46;15.5;74
79467;SHT30;68933;49.726;9.226;2023-05-10T02:11:59;15.5;74
79467;SHT30;68933;49.726;9.226;2023-05-10T02:14:12;15.5;74
79467;SHT30;68933;49.726;9.226;2023-05-10T02:16:26;15.5;74
79467;SHT30;68933;49.726;9.226;2023-05-10T02:18:38;15.5;74
79467;SHT30;68933;49.726;9.226;2023-05-10T02:20:51;15.5;74
79467;SHT30;68933;49.726;9.226;2023-05-10T02:23:04;15.5;74
79467;SHT30;68933;49.726;9.226;2023-05-10T02:25:17;15.4;74
79467;SHT30;68933;49.726;9.226;2023-05-10T02:27:30;15.4;74
79467;SHT30;68933;49.726;9.226;2023-05-10T02:29:43;15.4;74
79467;SHT30;68933;49.726;9.226;2023-05-10T02:31:56;15.3;74
79467;SHT30;68933;49.726;9.226;2023-05-10T02:34:09;15.3;74
79467;SHT30;68933;49.726;9.226;2023-05-10T02:36:22;15.3;74
79467;SHT30;68933;49.726;9.226;2023-05-10T02:38:35;15.3;74
79467;SHT30;68933;49.726;9.226;2023-05-10T02:40:48;15.3;74
79467;SHT30;68933;49.726;9.226;2023-05-10T02:43:01;15.3;74
79467;SHT30;68933;49.726;9.226;2023-05-10T02:45:15;15.3;74
79467;SHT30;68933;49.726;9.226;2023-05-10T02:47:27;15.3;75
79467;SHT30;68933;49.726;9.226;2023-05-10T02:49:40;15.3;75
79467;SHT30;68933;49.726;9.226;2023-05-10T02:51:55;15.3;75
79467;SHT30;68933;49.726;9.226;2023-05-10T02:54:07;15.3;74
79467;SHT30;68933;49.726;9.226;2023-05-10T02:56:20;15.3;74
79467;SHT30;68933;49.726;9.226;2023-05-10T02:58:32;15.3;74
79467;SHT30;68933;49.726;9.226;2023-05-10T03:00:45;15.3;74
79467;SHT30;68933;49.726;9.226;2023-05-10T03:02:58;15.3;74
79467;SHT30;68933;49.726;9.226;2023-05-10T03:05:11;15.3;74
79467;SHT30;68933;49.726;9.226;2023-05-10T03:07:24;15.3;74
79467;SHT30;68933;49.726;9.226;2023-05-10T03:09:37;15.3;75
79467;SHT30;68933;49.726;9.226;2023-05-10T03:11:54;15.3;75
79467;SHT30;68933;49.726;9.226;2023-05-10T03:14:07;15.3;75
79467;SHT30;68933;49.726;9.226;2023-05-10T03:16:17;15.3;75
79467;SHT30;68933;49.726;9.226;2023-05-10T03:18:33;15.3;75
79467;SHT30;68933;49.726;9.226;2023-05-10T03:20:43;15.2;75
79467;SHT30;68933;49.726;9.226;2023-05-10T03:22:57;15.2;75
79467;SHT30;68933;49.726;9.226;2023-05-10T03:25:08;15.2;75
79467;SHT30;68933;49.726;9.226;2023-05-10T03:27:22;15.2;75
79467;SHT30;68933;49.726;9.226;2023-05-10T03:29:34;15.2;75
79467;SHT30;68933;49.726;9.226;2023-05-10T03:31:47;15.2;75
79467;SHT30;68933;49.726;9.226;2023-05-10T03:34:00;15.2;75
79467;SHT30;68933;49.726;9.226;2023-05-10T03:36:13;15.2;75
79467;SHT30;68933;49.726;9.226;2023-05-10T03:38:26;15.2;75
79467;SHT30;68933;49.726;9.226;2023-05-10T03:40:39;15.2;75
79467;SHT30;68933;49.726;9.226;2023-05-10T03:42:52;15.2;75
79467;SHT30;68933;49.726;9.226;2023-05-10T03:45:06;15.2;75
79467;SHT30;68933;49.726;9.226;2023-05-10T03:47:18;15.2;75
79467;SHT30;68933;49.726;9.226;2023-05-10T03:49:31;15.2;75
79467;SHT30;68933;49.726;9.226;2023-05-10T03:51:44;15.2;75
79467;SHT30;68933;49.726;9.226;2023-05-10T03:53:57;15.2;75
79467;SHT30;68933;49.726;9.226;2023-05-10T03:56:10;15.2;75
79467;SHT30;68933;49.726;9.226;2023-05-10T03:58:23;15.2;75
79467;SHT30;68933;49.726;9.226;2023-05-10T04:00:36;15.2;75
79467;SHT30;68933;49.726;9.226;2023-05-10T04:02:49;15.2;75
79467;SHT30;68933;49.726;9.226;2023-05-10T04:05:02;15.2;75
79467;SHT30;68933;49.726;9.226;2023-05-10T04:07:15;15.2;75
79467;SHT30;68933;49.726;9.226;2023-05-10T04:09:28;15.2;75
79467;SHT30;68933;49.726;9.226;2023-05-10T04:11:41;15.2;75
79467;SHT30;68933;49.726;9.226;2023-05-10T04:13:54;15.2;75
79467;SHT30;68933;49.726;9.226;2023-05-10T04:16:07;15.2;75
79467;SHT30;68933;49.726;9.226;2023-05-10T04:18:20;15.2;75
79467;SHT30;68933;49.726;9.226;2023-05-10T04:20:33;15.2;75
79467;SHT30;68933;49.726;9.226;2023-05-10T04:22:46;15.2;77
79467;SHT30;68933;49.726;9.226;2023-05-10T04:24:59;15.2;77
79467;SHT30;68933;49.726;9.226;2023-05-10T04:27:12;15.2;77
79467;SHT30;68933;49.726;9.226;2023-05-10T04:29:26;15.2;77
79467;SHT30;68933;49.726;9.226;2023-05-10T04:31:38;15.1;77
79467;SHT30;68933;49.726;9.226;2023-05-10T04:33:51;15.1;77
79467;SHT30;68933;49.726;9.226;2023-05-10T04:36:04;15.2;77
79467;SHT30;68933;49.726;9.226;2023-05-10T04:38:17;15.2;77
79467;SHT30;68933;49.726;9.226;2023-05-10T04:40:30;15.2;77
79467;SHT30;68933;49.726;9.226;2023-05-10T04:42:43;15.2;77
79467;SHT30;68933;49.726;9.226;2023-05-10T04:44:56;15.2;77
79467;SHT30;68933;49.726;9.226;2023-05-10T04:47:09;15.1;77
79467;SHT30;68933;49.726;9.226;2023-05-10T04:49:22;15.1;77
79467;SHT30;68933;49.726;9.226;2023-05-10T04:51:35;15.2;77
79467;SHT30;68933;49.726;9.226;2023-05-10T04:53:48;15.2;77
79467;SHT30;68933;49.726;9.226;2023-05-10T04:56:01;15.2;77
79467;SHT30;68933;49.726;9.226;2023-05-10T04:58:14;15.2;77
79467;SHT30;68933;49.726;9.226;2023-05-10T05:00:27;15.2;77
79467;SHT30;68933;49.726;9.226;2023-05-10T05:02:42;15.2;77
79467;SHT30;68933;49.726;9.226;2023-05-10T05:04:55;15.2;77
79467;SHT30;68933;49.726;9.226;2023-05-10T05:07:06;15.2;77
79467;SHT30;68933;49.726;9.226;2023-05-10T05:09:19;15.2;77
79467;SHT30;68933;49.726;9.226;2023-05-10T05:11:32;15.2;77
79467;SHT30;68933;49.726;9.226;2023-05-10T05:13:45;15.2;77
79467;SHT30;68933;49.726;9.226;2023-05-10T05:15:59;15.2;77
79467;SHT30;68933;49.726;9.226;2023-05-10T05:18:11;15.2;77
79467;SHT30;68933;49.726;9.226;2023-05-10T05:20:24;15.2;77
79467;SHT30;68933;49.726;9.226;2023-05-10T05:22:37;15.2;77
79467;SHT30;68933;49.726;9.226;2023-05-10T05:24:50;15.2;77
79467;SHT30;68933;49.726;9.226;2023-05-10T05:27:03;15.2;77
79467;SHT30;68933;49.726;9.226;2023-05-10T05:29:16;15.2;77
79467;SHT30;68933;49.726;9.226;2023-05-10T05:31:29;15.2;77
79467;SHT30;68933;49.726;9.226;2023-05-10T05:33:42;15.2;77
79467;SHT30;68933;49.726;9.226;2023-05-10T05:35:55;15.2;77
79467;SHT30;68933;49.726;9.226;2023-05-10T05:38:08;15.2;77
79467;SHT30;68933;49.726;9.226;2023-05-10T05:40:21;15.2;77
79467;SHT30;68933;49.726;9.226;2023-05-10T05:42:34;15.3;77
79467;SHT30;68933;49.726;9.226;2023-05-10T05:44:47;15.3;77
79467;SHT30;68933;49.726;9.226;2023-05-10T05:47:00;15.3;77
79467;SHT30;68933;49.726;9.226;2023-05-10T05:49:13;15.3;77
79467;SHT30;68933;49.726;9.226;2023-05-10T05:51:26;15.3;77
79467;SHT30;68933;49.726;9.226;2023-05-10T05:53:39;15.3;77
79467;SHT30;68933;49.726;9.226;2023-05-10T05:55:53;15.3;77
79467;SHT30;68933;49.726;9.226;2023-05-10T05:58:05;15.3;77
79467;SHT30;68933;49.726;9.226;2023-05-10T06:00:18;15.3;77
79467;SHT30;68933;49.726;9.226;2023-05-10T06:02:31;15.3;77
79467;SHT30;68933;49.726;9.226;2023-05-10T06:04:44;15.3;75
79467;SHT30;68933;49.726;9.226;2023-05-10T06:06:57;15.3;75
79467;SHT30;68933;49.726;9.226;2023-05-10T06:09:10;15.4;75
79467;SHT30;68933;49.726;9.226;2023-05-10T06:11:23;15.4;75
79467;SHT30;68933;49.726;9.226;2023-05-10T06:13:36;15.4;75
79467;SHT30;68933;49.726;9.226;2023-05-10T06:15:49;15.5;74
79467;SHT30;68933;49.726;9.226;2023-05-10T06:18:02;15.5;74
79467;SHT30;68933;49.726;9.226;2023-05-10T06:20:15;15.6;74
79467;SHT30;68933;49.726;9.226;2023-05-10T06:22:28;15.6;74
79467;SHT30;68933;49.726;9.226;2023-05-10T06:24:41;15.6;73
79467;SHT30;68933;49.726;9.226;2023-05-10T06:26:54;15.6;73
79467;SHT30;68933;49.726;9.226;2023-05-10T06:29:07;15.6;73
79467;SHT30;68933;49.726;9.226;2023-05-10T06:31:20;15.7;73
79467;SHT30;68933;49.726;9.226;2023-05-10T06:33:33;15.7;73
79467;SHT30;68933;49.726;9.226;2023-05-10T06:35:46;15.7;73
79467;SHT30;68933;49.726;9.226;2023-05-10T06:37:59;15.7;73
79467;SHT30;68933;49.726;9.226;2023-05-10T06:40:12;15.8;71
79467;SHT30;68933;49.726;9.226;2023-05-10T06:42:25;15.8;71
79467;SHT30;68933;49.726;9.226;2023-05-10T06:44:38;15.8;71
79467;SHT30;68933;49.726;9.226;2023-05-10T06:46:51;15.8;71
79467;SHT30;68933;49.726;9.226;2023-05-10T06:49:04;15.8;71
79467;SHT30;68933;49.726;9.226;2023-05-10T06:51:17;15.9;71
79467;SHT30;68933;49.726;9.226;2023-05-10T06:53:30;15.9;71
79467;SHT30;68933;49.726;9.226;2023-05-10T06:55:43;16.2;71
79467;SHT30;68933;49.726;9.226;2023-05-10T06:57:56;16.2;71
79467;SHT30;68933;49.726;9.226;2023-05-10T07:00:09;16.2;71
79467;SHT30;68933;49.726;9.226;2023-05-10T07:02:22;16.4;71
79467;SHT30;68933;49.726;9.226;2023-05-10T07:04:35;16.4;71
79467;SHT30;68933;49.726;9.226;2023-05-10T07:06:48;16.7;70
79467;SHT30;68933;49.726;9.226;2023-05-10T07:09:01;16.7;70
79467;SHT30;68933;49.726;9.226;2023-05-10T07:11:14;16.7;69
79467;SHT30;68933;49.726;9.226;2023-05-10T07:13:27;16.7;69
79467;SHT30;68933;49.726;9.226;2023-05-10T07:15:40;16.7;69
79467;SHT30;68933;49.726;9.226;2023-05-10T07:17:53;16.9;69
79467;SHT30;68933;49.726;9.226;2023-05-10T07:20:07;16.9;69
79467;SHT30;68933;49.726;9.226;2023-05-10T07:22:19;17.1;67
79467;SHT30;68933;49.726;9.226;2023-05-10T07:24:32;17.1;67
79467;SHT30;68933;49.726;9.226;2023-05-10T07:26:45;17.1;67
79467;SHT30;68933;49.726;9.226;2023-05-10T07:28:58;17.1;67
79467;SHT30;68933;49.726;9.226;2023-05-10T07:31:11;17.1;67
79467;SHT30;68933;49.726;9.226;2023-05-10T07:33:24;17.2;67
79467;SHT30;68933;49.726;9.226;2023-05-10T07:35:37;17.2;67
79467;SHT30;68933;49.726;9.226;2023-05-10T07:37:50;17.2;67
79467;SHT30;68933;49.726;9.226;2023-05-10T07:40:03;17.2;67
79467;SHT30;68933;49.726;9.226;2023-05-10T07:42:16;17.2;67
79467;SHT30;68933;49.726;9.226;2023-05-10T07:44:30;17.2;67
79467;SHT30;68933;49.726;9.226;2023-05-10T07:46:42;17.2;67
79467;SHT30;68933;49.726;9.226;2023-05-10T07:48:55;17.2;67
79467;SHT30;68933;49.726;9.226;2023-05-10T07:51:08;17.2;67
79467;SHT30;68933;49.726;9.226;2023-05-10T07:53:21;17.1;67
79467;SHT30;68933;49.726;9.226;2023-05-10T07:55:34;17.1;67
79467;SHT30;68933;49.726;9.226;2023-05-10T07:57:47;17.1;67
79467;SHT30;68933;49.726;9.226;2023-05-10T08:00:00;17.1;67
79467;SHT30;68933;49.726;9.226;2023-05-10T08:02:13;17.2;67
79467;SHT30;68933;49.726;9.226;2023-05-10T08:04:26;17.2;67
79467;SHT30;68933;49.726;9.226;2023-05-10T08:06:39;17.3;67
79467;SHT30;68933;49.726;9.226;2023-05-10T08:08:52;17.3;67
79467;SHT30;68933;49.726;9.226;2023-05-10T08:11:05;17.4;67
79467;SHT30;68933;49.726;9.226;2023-05-10T08:13:18;17.4;67
79467;SHT30;68933;49.726;9.226;2023-05-10T08:15:31;17.4;67
79467;SHT30;68933;49.726;9.226;2023-05-10T08:17:44;17.6;67
79467;SHT30;68933;49.726;9.226;2023-05-10T08:19:57;17.6;67
79467;SHT30;68933;49.726;9.226;2023-05-10T08:22:10;17.6;66
79467;SHT30;68933;49.726;9.226;2023-05-10T08:24:23;17.6;66
79467;SHT30;68933;49.726;9.226;2023-05-10T08:26:36;17.7;65
79467;SHT30;68933;49.726;9.226;2023-05-10T08:28:49;17.7;65
79467;SHT30;68933;49.726;9.226;2023-05-10T08:31:04;17.8;66
79467;SHT30;68933;49.726;9.226;2023-05-10T08:33:15;17.8;66
79467;SHT30;68933;49.726;9.226;2023-05-10T08:35:28;17.9;65
79467;SHT30;68933;49.726;9.226;2023-05-10T08:37:41;17.9;65
79467;SHT30;68933;49.726;9.226;2023-05-10T08:39:54;18;65
79467;SHT30;68933;49.726;9.226;2023-05-10T08:42:07;18;65
79467;SHT30;68933;49.726;9.226;2023-05-10T08:44:20;18;65
79467;SHT30;68933;49.726;9.226;2023-05-10T08:46:33;18.1;63
79467;SHT30;68933;49.726;9.226;2023-05-10T08:48:47;18.1;63
79467;SHT30;68933;49.726;9.226;2023-05-10T08:50:59;18.3;63
79467;SHT30;68933;49.726;9.226;2023-05-10T08:53:13;18.3;63
79467;SHT30;68933;49.726;9.226;2023-05-10T08:55:25;18.3;63
79467;SHT30;68933;49.726;9.226;2023-05-10T08:57:38;18.5;62
79467;SHT30;68933;49.726;9.226;2023-05-10T08:59:51;18.5;62
79467;SHT30;68933;49.726;9.226;2023-05-10T09:02:05;18.5;62
79467;SHT30;68933;49.726;9.226;2023-05-10T09:04:17;18.5;62
79467;SHT30;68933;49.726;9.226;2023-05-10T09:06:30;18.5;62
79467;SHT30;68933;49.726;9.226;2023-05-10T09:08:43;18.7;61
79467;SHT30;68933;49.726;9.226;2023-05-10T09:10:56;18.7;61
79467;SHT30;68933;49.726;9.226;2023-05-10T09:13:09;18.7;61
79467;SHT30;68933;49.726;9.226;2023-05-10T09:15:22;18.7;61
79467;SHT30;68933;49.726;9.226;2023-05-10T09:17:35;18.7;61
79467;SHT30;68933;49.726;9.226;2023-05-10T09:19:48;18.7;61
79467;SHT30;68933;49.726;9.226;2023-05-10T09:22:01;18.7;61
79467;SHT30;68933;49.726;9.226;2023-05-10T09:24:14;18.6;59
79467;SHT30;68933;49.726;9.226;2023-05-10T09:26:27;18.6;59
79467;SHT30;68933;49.726;9.226;2023-05-10T09:28:50;18.6;61
79467;SHT30;68933;49.726;9.226;2023-05-10T09:30:53;18.6;61
79467;SHT30;68933;49.726;9.226;2023-05-10T09:33:06;18.7;61
79467;SHT30;68933;49.726;9.226;2023-05-10T09:35:20;18.7;61
79467;SHT30;68933;49.726;9.226;2023-05-10T09:37:32;18.7;61
79467;SHT30;68933;49.726;9.226;2023-05-10T09:39:45;18.8;59
79467;SHT30;68933;49.726;9.226;2023-05-10T09:41:58;18.8;59
79467;SHT30;68933;49.726;9.226;2023-05-10T09:44:11;18.9;59
79467;SHT30;68933;49.726;9.226;2023-05-10T09:46:24;18.9;59
79467;SHT30;68933;49.726;9.226;2023-05-10T09:48:39;18.9;59
79467;SHT30;68933;49.726;9.226;2023-05-10T09:50:56;18.9;59
79467;SHT30;68933;49.726;9.226;2023-05-10T09:53:03;18.9;59
79467;SHT30;68933;49.726;9.226;2023-05-10T09:55:17;19;59
79467;SHT30;68933;49.726;9.226;2023-05-10T09:57:29;19;59
79467;SHT30;68933;49.726;9.226;2023-05-10T09:59:42;19.1;58
79467;SHT30;68933;49.726;9.226;2023-05-10T10:01:55;19.1;58
79467;SHT30;68933;49.726;9.226;2023-05-10T10:04:09;19.1;58
79467;SHT30;68933;49.726;9.226;2023-05-10T10:06:21;19.1;58
79467;SHT30;68933;49.726;9.226;2023-05-10T10:08:34;19.1;58
79467;SHT30;68933;49.726;9.226;2023-05-10T10:10:47;19.2;58
79467;SHT30;68933;49.726;9.226;2023-05-10T10:13:00;19.2;58
79467;SHT30;68933;49.726;9.226;2023-05-10T10:15:13;19.3;58
79467;SHT30;68933;49.726;9.226;2023-05-10T10:17:26;19.3;58
79467;SHT30;68933;49.726;9.226;2023-05-10T10:19:39;19.5;58
79467;SHT30;68933;49.726;9.226;2023-05-10T10:21:52;19.5;58
79467;SHT30;68933;49.726;9.226;2023-05-10T10:24:05;19.5;58
79467;SHT30;68933;49.726;9.226;2023-05-10T10:26:18;20;55
79467;SHT30;68933;49.726;9.226;2023-05-10T10:28:33;20;55
79467;SHT30;68933;49.726;9.226;2023-05-10T10:30:45;20.3;54
79467;SHT30;68933;49.726;9.226;2023-05-10T10:33:01;20.3;54
79467;SHT30;68933;49.726;9.226;2023-05-10T10:35:10;20.4;54
79467;SHT30;68933;49.726;9.226;2023-05-10T10:37:23;20.4;54
79467;SHT30;68933;49.726;9.226;2023-05-10T10:39:36;20.4;54
79467;SHT30;68933;49.726;9.226;2023-05-10T10:41:50;20.6;53
79467;SHT30;68933;49.726;9.226;2023-05-10T10:44:35;20.6;53
79467;SHT30;68933;49.726;9.226;2023-05-10T10:46:16;20.5;54
79467;SHT30;68933;49.726;9.226;2023-05-10T10:48:28;20.5;54
79467;SHT30;68933;49.726;9.226;2023-05-10T10:50:44;20.5;54
79467;SHT30;68933;49.726;9.226;2023-05-10T10:52:54;20.5;54
79467;SHT30;68933;49.726;9.226;2023-05-10T10:55:08;20.5;53
79467;SHT30;68933;49.726;9.226;2023-05-10T10:57:20;20.5;53
79467;SHT30;68933;49.726;9.226;2023-05-10T10:59:33;20.5;53
79467;SHT30;68933;49.726;9.226;2023-05-10T11:01:46;20.6;53
79467;SHT30;68933;49.726;9.226;2023-05-10T11:04:33;20.6;53
79467;SHT30;68933;49.726;9.226;2023-05-10T11:06:12;20.5;53
79467;SHT30;68933;49.726;9.226;2023-05-10T11:08:26;20.5;53
79467;SHT30;68933;49.726;9.226;2023-05-10T11:10:38;20.1;53
79467;SHT30;68933;49.726;9.226;2023-05-10T11:12:52;20.1;53
79467;SHT30;68933;49.726;9.226;2023-05-10T11:15:04;20;54
79467;SHT30;68933;49.726;9.226;2023-05-10T11:17:23;20;54
79467;SHT30;68933;49.726;9.226;2023-05-10T11:19:30;19.9;54
79467;SHT30;68933;49.726;9.226;2023-05-10T11:21:45;19.9;54
79467;SHT30;68933;49.726;9.226;2023-05-10T11:23:56;19.9;54
79467;SHT30;68933;49.726;9.226;2023-05-10T11:26:09;19.8;54
79467;SHT30;68933;49.726;9.226;2023-05-10T11:28:22;19.8;54
79467;SHT30;68933;49.726;9.226;2023-05-10T11:30:35;19.8;54
79467;SHT30;68933;49.726;9.226;2023-05-10T11:32:48;19.8;54
79467;SHT30;68933;49.726;9.226;2023-05-10T11:35:05;19.7;54
79467;SHT30;68933;49.726;9.226;2023-05-10T11:37:14;19.7;54
79467;SHT30;68933;49.726;9.226;2023-05-10T11:39:28;19.6;55
79467;SHT30;68933;49.726;9.226;2023-05-10T11:41:40;19.6;55
79467;SHT30;68933;49.726;9.226;2023-05-10T11:43:53;19.6;55
79467;SHT30;68933;49.726;9.226;2023-05-10T11:46:06;19.5;55
79467;SHT30;68933;49.726;9.226;2023-05-10T11:48:19;19.5;55
79467;SHT30;68933;49.726;9.226;2023-05-10T11:50:32;19.3;57
79467;SHT30;68933;49.726;9.226;2023-05-10T11:52:45;19.3;57
79467;SHT30;68933;49.726;9.226;2023-05-10T11:54:58;19.1;58
79467;SHT30;68933;49.726;9.226;2023-05-10T11:57:11;19.1;58
79467;SHT30;68933;49.726;9.226;2023-05-10T11:59:24;19.1;58
79467;SHT30;68933;49.726;9.226;2023-05-10T12:01:37;19;58
79467;SHT30;68933;49.726;9.226;2023-05-10T12:03:50;19;58
79467;SHT30;68933;49.726;9.226;2023-05-10T12:06:03;19;58
79467;SHT30;68933;49.726;9.226;2023-05-10T12:08:20;18.9;58
79467;SHT30;68933;49.726;9.226;2023-05-10T12:10:29;18.9;58
79467;SHT30;68933;49.726;9.226;2023-05-10T12:12:43;18.8;58
79467;SHT30;68933;49.726;9.226;2023-05-10T12:14:55;18.8;58
79467;SHT30;68933;49.726;9.226;2023-05-10T12:17:11;18.8;57
79467;SHT30;68933;49.726;9.226;2023-05-10T12:19:21;18.8;57
79467;SHT30;68933;49.726;9.226;2023-05-10T12:21:34;18.8;57
79467;SHT30;68933;49.726;9.226;2023-05-10T12:23:48;18.7;55
79467;SHT30;68933;49.726;9.226;2023-05-10T12:26:02;18.7;55
79467;SHT30;68933;49.726;9.226;2023-05-10T12:28:13;18.7;55
79467;SHT30;68933;49.726;9.226;2023-05-10T12:30:26;18.7;55
79467;SHT30;68933;49.726;9.226;2023-05-10T12:32:39;18.6;57
79467;SHT30;68933;49.726;9.226;2023-05-10T12:34:52;18.6;57
79467;SHT30;68933;49.726;9.226;2023-05-10T12:37:05;18.6;57
79467;SHT30;68933;49.726;9.226;2023-05-10T12:39:18;18.4;57
79467;SHT30;68933;49.726;9.226;2023-05-10T12:41:31;18.4;57
79467;SHT30;68933;49.726;9.226;2023-05-10T12:43:44;18.3;57
79467;SHT30;68933;49.726;9.226;2023-05-10T12:45:57;18.3;57
79467;SHT30;68933;49.726;9.226;2023-05-10T12:48:10;18.3;57
79467;SHT30;68933;49.726;9.226;2023-05-10T12:50:23;18.3;57
79467;SHT30;68933;49.726;9.226;2023-05-10T12:52:36;18.3;57
79467;SHT30;68933;49.726;9.226;2023-05-10T12:54:49;18.4;57
79467;SHT30;68933;49.726;9.226;2023-05-10T12:57:02;18.4;57
79467;SHT30;68933;49.726;9.226;2023-05-10T12:59:15;18.5;57
79467;SHT30;68933;49.726;9.226;2023-05-10T13:01:28;18.5;57
79467;SHT30;68933;49.726;9.226;2023-05-10T13:03:41;18.5;57
79467;SHT30;68933;49.726;9.226;2023-05-10T13:05:54;18.6;57
79467;SHT30;68933;49.726;9.226;2023-05-10T13:08:07;18.6;57
79467;SHT30;68933;49.726;9.226;2023-05-10T13:10:20;18.7;57
79467;SHT30;68933;49.726;9.226;2023-05-10T13:12:33;18.7;57
79467;SHT30;68933;49.726;9.226;2023-05-10T13:14:46;18.8;57
79467;SHT30;68933;49.726;9.226;2023-05-10T13:16:59;18.8;57
79467;SHT30;68933;49.726;9.226;2023-05-10T13:19:12;18.9;57
79467;SHT30;68933;49.726;9.226;2023-05-10T13:21:25;18.9;57
79467;SHT30;68933;49.726;9.226;2023-05-10T13:23:38;18.9;57
79467;SHT30;68933;49.726;9.226;2023-05-10T13:25:51;19.2;55
79467;SHT30;68933;49.726;9.226;2023-05-10T13:28:04;19.2;55
79467;SHT30;68933;49.726;9.226;2023-05-10T13:30:17;19.4;55
79467;SHT30;68933;49.726;9.226;2023-05-10T13:32:30;19.4;55
79467;SHT30;68933;49.726;9.226;2023-05-10T13:34:43;19.5;55
79467;SHT30;68933;49.726;9.226;2023-05-10T13:36:56;19.5;55
79467;SHT30;68933;49.726;9.226;2023-05-10T13:39:09;19.6;54
79467;SHT30;68933;49.726;9.226;2023-05-10T13:41:22;19.6;54
79467;SHT30;68933;49.726;9.226;2023-05-10T13:43:35;19.6;54
79467;SHT30;68933;49.726;9.226;2023-05-10T13:45:48;19.7;51
79467;SHT30;68933;49.726;9.226;2023-05-10T13:48:01;19.7;51
79467;SHT30;68933;49.726;9.226;2023-05-10T13:50:14;19.8;51
79467;SHT30;68933;49.726;9.226;2023-05-10T13:52:27;19.8;51
79467;SHT30;68933;49.726;9.226;2023-05-10T13:54:40;19.8;51
79467;SHT30;68933;49.726;9.226;2023-05-10T13:56:53;19.8;51
79467;SHT30;68933;49.726;9.226;2023-05-10T13:59:06;19.8;51
79467;SHT30;68933;49.726;9.226;2023-05-10T14:01:19;19.8;51
79467;SHT30;68933;49.726;9.226;2023-05-10T14:03:32;19.8;51
79467;SHT30;68933;49.726;9.226;2023-05-10T14:05:45;19.8;51
79467;SHT30;68933;49.726;9.226;2023-05-10T14:07:58;19.8;51
79467;SHT30;68933;49.726;9.226;2023-05-10T14:10:11;19.7;50
79467;SHT30;68933;49.726;9.226;2023-05-10T14:12:24;19.7;50
79467;SHT30;68933;49.726;9.226;2023-05-10T14:14:37;19.7;51
79467;SHT30;68933;49.726;9.226;2023-05-10T14:16:50;19.7;51
79467;SHT30;68933;49.726;9.226;2023-05-10T14:19:03;19.7;51
79467;SHT30;68933;49.726;9.226;2023-05-10T14:21:16;19.7;51
79467;SHT30;68933;49.726;9.226;2023-05-10T14:23:29;19.7;51
79467;SHT30;68933;49.726;9.226;2023-05-10T14:25:42;19.7;53
79467;SHT30;68933;49.726;9.226;2023-05-10T14:27:55;19.7;53
79467;SHT30;68933;49.726;9.226;2023-05-10T14:30:08;19.6;53
79467;SHT30;68933;49.726;9.226;2023-05-10T14:32:21;19.6;53
79467;SHT30;68933;49.726;9.226;2023-05-10T14:34:34;19.7;53
79467;SHT30;68933;49.726;9.226;2023-05-10T14:36:47;19.7;53
79467;SHT30;68933;49.726;9.226;2023-05-10T14:39:00;19.8;53
79467;SHT30;68933;49.726;9.226;2023-05-10T14:41:13;19.8;53
79467;SHT30;68933;49.726;9.226;2023-05-10T14:43:26;20;53
79467;SHT30;68933;49.726;9.226;2023-05-10T14:45:39;20;53
79467;SHT30;68933;49.726;9.226;2023-05-10T14:47:52;20;50
79467;SHT30;68933;49.726;9.226;2023-05-10T14:50:05;20;50
79467;SHT30;68933;49.726;9.226;2023-05-10T14:52:18;20;50
79467;SHT30;68933;49.726;9.226;2023-05-10T14:54:31;20;50
79467;SHT30;68933;49.726;9.226;2023-05-10T14:56:44;20;50
79467;SHT30;68933;49.726;9.226;2023-05-10T14:58:57;20;50